KIKK/IKK METAR and TAF weather

Enter ICAO airport designator
Station Type Date Time Source
KIKK METAR 2022/01/26 19:58 UTC NOAA

KIKK 261958Z AUTO 24004KT 10SM CLR M13/M19 A3043 RMK AO2


Station Type Date Time Source
KIKK Decoded METAR 2022/01/26 19:58 UTC NOAA

Kankakee, Greater Kankakee Airport, IL, United States (KIKK) 41-04-17N 087-50-47W
Jan 26, 2022 - 02:58 PM EST / 2022.01.26 1958 UTC
Wind: from the WSW (240 degrees) at 5 MPH (4 KT):0
Visibility: 10 mile(s):0
Sky conditions: clear
Temperature: 8 F (-13 C)
Windchill: 0 F (-18 C):1
Dew Point: -2 F (-19 C)
Relative Humidity: 60%
Pressure (altimeter): 30.43 in. Hg (1030 hPa)
ob: KIKK 261958Z AUTO 24004KT 10SM CLR M13/M19 A3043 RMK AO2
cycle: 20

Station Type Date Time Source
KIKK TAF UTC NOAA

Error!

Example: see airport list